sensor_id;sensor_type;location;lat;lon;timestamp;temperature;humidity
21039;DHT22;10678;51.002;4.786;2024-02-21T00:00:46;11.00;99.90
21039;DHT22;10678;51.002;4.786;2024-02-21T00:03:12;11.00;99.90
21039;DHT22;10678;51.002;4.786;2024-02-21T00:05:38;11.10;99.90
21039;DHT22;10678;51.002;4.786;2024-02-21T00:08:03;11.20;99.90
21039;DHT22;10678;51.002;4.786;2024-02-21T00:10:29;11.00;99.90
21039;DHT22;10678;51.002;4.786;2024-02-21T00:12:57;11.00;99.90
21039;DHT22;10678;51.002;4.786;2024-02-21T00:15:22;11.00;99.90
21039;DHT22;10678;51.002;4.786;2024-02-21T00:17:48;11.10;99.90
21039;DHT22;10678;51.002;4.786;2024-02-21T00:20:14;11.00;99.90
21039;DHT22;10678;51.002;4.786;2024-02-21T00:22:40;11.10;99.90
21039;DHT22;10678;51.002;4.786;2024-02-21T00:25:05;11.10;99.90
21039;DHT22;10678;51.002;4.786;2024-02-21T00:27:31;11.00;99.90
21039;DHT22;10678;51.002;4.786;2024-02-21T00:29:57;11.00;99.90
21039;DHT22;10678;51.002;4.786;2024-02-21T00:32:23;11.00;99.90
21039;DHT22;10678;51.002;4.786;2024-02-21T00:34:49;11.10;99.90
21039;DHT22;10678;51.002;4.786;2024-02-21T00:37:14;11.00;99.90
21039;DHT22;10678;51.002;4.786;2024-02-21T00:39:40;11.10;99.90
21039;DHT22;10678;51.002;4.786;2024-02-21T00:42:05;11.10;99.90
21039;DHT22;10678;51.002;4.786;2024-02-21T00:44:32;11.00;99.90
21039;DHT22;10678;51.002;4.786;2024-02-21T00:46:58;10.90;99.90
21039;DHT22;10678;51.002;4.786;2024-02-21T00:49:23;10.90;99.90
21039;DHT22;10678;51.002;4.786;2024-02-21T00:51:49;11.00;99.90
21039;DHT22;10678;51.002;4.786;2024-02-21T00:54:15;11.10;99.90
21039;DHT22;10678;51.002;4.786;2024-02-21T00:56:42;11.00;99.90
21039;DHT22;10678;51.002;4.786;2024-02-21T00:59:07;11.00;99.90
21039;DHT22;10678;51.002;4.786;2024-02-21T01:01:33;11.00;99.90
21039;DHT22;10678;51.002;4.786;2024-02-21T01:03:59;11.10;99.90
21039;DHT22;10678;51.002;4.786;2024-02-21T01:06:24;11.10;99.90
21039;DHT22;10678;51.002;4.786;2024-02-21T01:08:50;11.00;99.90
21039;DHT22;10678;51.002;4.786;2024-02-21T01:11:16;11.10;99.90
21039;DHT22;10678;51.002;4.786;2024-02-21T01:13:42;11.20;99.90
21039;DHT22;10678;51.002;4.786;2024-02-21T01:16:07;11.40;99.90
21039;DHT22;10678;51.002;4.786;2024-02-21T01:18:34;11.30;99.90
21039;DHT22;10678;51.002;4.786;2024-02-21T01:20:59;11.30;99.90
21039;DHT22;10678;51.002;4.786;2024-02-21T01:23:25;11.30;99.90
21039;DHT22;10678;51.002;4.786;2024-02-21T01:25:51;11.30;99.90
21039;DHT22;10678;51.002;4.786;2024-02-21T01:28:17;11.20;99.90
21039;DHT22;10678;51.002;4.786;2024-02-21T01:30:43;11.10;99.90
21039;DHT22;10678;51.002;4.786;2024-02-21T01:33:08;11.10;99.90
21039;DHT22;10678;51.002;4.786;2024-02-21T01:35:35;11.10;99.90
21039;DHT22;10678;51.002;4.786;2024-02-21T01:38:01;11.20;99.90
21039;DHT22;10678;51.002;4.786;2024-02-21T01:40:27;11.10;99.90
21039;DHT22;10678;51.002;4.786;2024-02-21T01:42:55;11.10;99.90
21039;DHT22;10678;51.002;4.786;2024-02-21T01:45:21;11.20;99.90
21039;DHT22;10678;51.002;4.786;2024-02-21T01:47:47;11.10;99.90
21039;DHT22;10678;51.002;4.786;2024-02-21T01:50:15;11.10;99.90
21039;DHT22;10678;51.002;4.786;2024-02-21T01:52:41;11.00;99.90
21039;DHT22;10678;51.002;4.786;2024-02-21T01:55:09;11.10;99.90
21039;DHT22;10678;51.002;4.786;2024-02-21T01:57:36;11.00;99.90
21039;DHT22;10678;51.002;4.786;2024-02-21T02:00:02;11.10;99.90
21039;DHT22;10678;51.002;4.786;2024-02-21T02:02:29;11.10;99.90
21039;DHT22;10678;51.002;4.786;2024-02-21T02:04:55;10.90;99.90
21039;DHT22;10678;51.002;4.786;2024-02-21T02:07:21;10.80;99.90
21039;DHT22;10678;51.002;4.786;2024-02-21T02:09:47;10.80;99.90
21039;DHT22;10678;51.002;4.786;2024-02-21T02:12:12;10.70;99.90
21039;DHT22;10678;51.002;4.786;2024-02-21T02:14:38;10.70;99.90
21039;DHT22;10678;51.002;4.786;2024-02-21T02:17:04;10.80;99.90
21039;DHT22;10678;51.002;4.786;2024-02-21T02:19:30;10.70;99.90
21039;DHT22;10678;51.002;4.786;2024-02-21T02:22:03;10.80;99.90
21039;DHT22;10678;51.002;4.786;2024-02-21T02:24:34;11.00;99.90
21039;DHT22;10678;51.002;4.786;2024-02-21T02:27:00;11.00;99.90
21039;DHT22;10678;51.002;4.786;2024-02-21T02:29:25;11.00;99.90
21039;DHT22;10678;51.002;4.786;2024-02-21T02:31:51;11.10;99.90
21039;DHT22;10678;51.002;4.786;2024-02-21T02:34:17;11.10;99.90
21039;DHT22;10678;51.002;4.786;2024-02-21T02:36:42;10.90;99.90
21039;DHT22;10678;51.002;4.786;2024-02-21T02:39:08;10.80;99.90
21039;DHT22;10678;51.002;4.786;2024-02-21T02:41:35;11.00;99.90
21039;DHT22;10678;51.002;4.786;2024-02-21T02:44:01;11.00;99.90
21039;DHT22;10678;51.002;4.786;2024-02-21T02:46:27;11.00;99.90
21039;DHT22;10678;51.002;4.786;2024-02-21T02:48:52;11.00;99.90
21039;DHT22;10678;51.002;4.786;2024-02-21T02:51:18;10.90;99.90
21039;DHT22;10678;51.002;4.786;2024-02-21T02:53:43;10.90;99.90
21039;DHT22;10678;51.002;4.786;2024-02-21T02:56:14;10.90;99.90
21039;DHT22;10678;51.002;4.786;2024-02-21T02:58:40;10.90;99.90
21039;DHT22;10678;51.002;4.786;2024-02-21T03:01:06;10.80;99.90
21039;DHT22;10678;51.002;4.786;2024-02-21T03:03:32;10.80;99.90
21039;DHT22;10678;51.002;4.786;2024-02-21T03:05:58;10.90;99.90
21039;DHT22;10678;51.002;4.786;2024-02-21T03:08:24;10.90;99.90
21039;DHT22;10678;51.002;4.786;2024-02-21T03:10:49;10.90;99.90
21039;DHT22;10678;51.002;4.786;2024-02-21T03:13:15;10.80;99.90
21039;DHT22;10678;51.002;4.786;2024-02-21T03:15:40;10.80;99.90
21039;DHT22;10678;51.002;4.786;2024-02-21T03:18:06;10.80;99.90
21039;DHT22;10678;51.002;4.786;2024-02-21T03:20:31;10.80;99.90
21039;DHT22;10678;51.002;4.786;2024-02-21T03:22:57;10.80;99.90
21039;DHT22;10678;51.002;4.786;2024-02-21T03:25:23;10.60;99.90
21039;DHT22;10678;51.002;4.786;2024-02-21T03:27:49;10.60;99.90
21039;DHT22;10678;51.002;4.786;2024-02-21T03:30:14;10.60;99.90
21039;DHT22;10678;51.002;4.786;2024-02-21T03:32:40;10.70;99.90
21039;DHT22;10678;51.002;4.786;2024-02-21T03:35:06;10.60;99.90
21039;DHT22;10678;51.002;4.786;2024-02-21T03:37:31;10.50;99.90
21039;DHT22;10678;51.002;4.786;2024-02-21T03:39:57;10.70;99.90
21039;DHT22;10678;51.002;4.786;2024-02-21T03:42:23;10.80;99.90
21039;DHT22;10678;51.002;4.786;2024-02-21T03:44:48;10.80;99.90
21039;DHT22;10678;51.002;4.786;2024-02-21T03:47:14;10.80;99.90
21039;DHT22;10678;51.002;4.786;2024-02-21T03:49:39;10.80;99.90
21039;DHT22;10678;51.002;4.786;2024-02-21T03:52:05;10.80;99.90
21039;DHT22;10678;51.002;4.786;2024-02-21T03:54:31;10.60;99.90
21039;DHT22;10678;51.002;4.786;2024-02-21T03:56:56;10.50;99.90
21039;DHT22;10678;51.002;4.786;2024-02-21T03:59:22;10.50;99.90
21039;DHT22;10678;51.002;4.786;2024-02-21T04:01:52;10.70;99.90
21039;DHT22;10678;51.002;4.786;2024-02-21T04:04:18;10.60;99.90
21039;DHT22;10678;51.002;4.786;2024-02-21T04:06:50;10.50;99.90
21039;DHT22;10678;51.002;4.786;2024-02-21T04:09:16;10.40;99.90
21039;DHT22;10678;51.002;4.786;2024-02-21T04:11:42;10.30;99.90
21039;DHT22;10678;51.002;4.786;2024-02-21T04:14:07;10.40;99.90
21039;DHT22;10678;51.002;4.786;2024-02-21T04:16:34;10.40;99.90
21039;DHT22;10678;51.002;4.786;2024-02-21T04:19:00;10.40;99.90
21039;DHT22;10678;51.002;4.786;2024-02-21T04:21:27;10.40;99.90
21039;DHT22;10678;51.002;4.786;2024-02-21T04:23:52;10.50;99.90
21039;DHT22;10678;51.002;4.786;2024-02-21T04:26:18;10.50;99.90
21039;DHT22;10678;51.002;4.786;2024-02-21T04:28:45;10.50;99.90
21039;DHT22;10678;51.002;4.786;2024-02-21T04:31:10;10.60;99.90
21039;DHT22;10678;51.002;4.786;2024-02-21T04:33:36;10.60;99.90
21039;DHT22;10678;51.002;4.786;2024-02-21T04:36:02;10.50;99.90
21039;DHT22;10678;51.002;4.786;2024-02-21T04:38:27;10.50;99.90
21039;DHT22;10678;51.002;4.786;2024-02-21T04:40:55;10.50;99.90
21039;DHT22;10678;51.002;4.786;2024-02-21T04:43:20;10.50;99.90
21039;DHT22;10678;51.002;4.786;2024-02-21T04:45:46;10.50;99.90
21039;DHT22;10678;51.002;4.786;2024-02-21T04:48:11;10.50;99.90
21039;DHT22;10678;51.002;4.786;2024-02-21T04:50:37;10.50;99.90
21039;DHT22;10678;51.002;4.786;2024-02-21T04:53:03;10.40;99.90
21039;DHT22;10678;51.002;4.786;2024-02-21T04:55:28;10.40;99.90
21039;DHT22;10678;51.002;4.786;2024-02-21T04:57:54;10.30;99.90
21039;DHT22;10678;51.002;4.786;2024-02-21T05:00:19;10.40;99.90
21039;DHT22;10678;51.002;4.786;2024-02-21T05:02:45;10.50;99.90
21039;DHT22;10678;51.002;4.786;2024-02-21T05:05:11;10.40;99.90
21039;DHT22;10678;51.002;4.786;2024-02-21T05:07:36;10.50;99.90
21039;DHT22;10678;51.002;4.786;2024-02-21T05:10:02;10.40;99.90
21039;DHT22;10678;51.002;4.786;2024-02-21T05:12:28;10.50;99.90
21039;DHT22;10678;51.002;4.786;2024-02-21T05:14:55;10.60;99.90
21039;DHT22;10678;51.002;4.786;2024-02-21T05:17:21;10.60;99.90
21039;DHT22;10678;51.002;4.786;2024-02-21T05:19:46;10.70;99.90
21039;DHT22;10678;51.002;4.786;2024-02-21T05:22:12;10.70;99.90
21039;DHT22;10678;51.002;4.786;2024-02-21T05:24:39;10.70;99.90
21039;DHT22;10678;51.002;4.786;2024-02-21T05:27:05;10.60;99.90
21039;DHT22;10678;51.002;4.786;2024-02-21T05:29:31;10.60;99.90
21039;DHT22;10678;51.002;4.786;2024-02-21T05:31:57;10.60;99.90
21039;DHT22;10678;51.002;4.786;2024-02-21T05:34:23;10.60;99.90
21039;DHT22;10678;51.002;4.786;2024-02-21T05:36:48;10.70;99.90
21039;DHT22;10678;51.002;4.786;2024-02-21T05:39:15;10.50;99.90
21039;DHT22;10678;51.002;4.786;2024-02-21T05:41:42;10.30;99.90
21039;DHT22;10678;51.002;4.786;2024-02-21T05:44:07;10.30;99.90
21039;DHT22;10678;51.002;4.786;2024-02-21T05:46:33;10.40;99.90
21039;DHT22;10678;51.002;4.786;2024-02-21T05:48:59;10.60;99.90
21039;DHT22;10678;51.002;4.786;2024-02-21T05:51:24;10.30;99.90
21039;DHT22;10678;51.002;4.786;2024-02-21T05:53:50;10.50;99.90
21039;DHT22;10678;51.002;4.786;2024-02-21T05:56:15;10.50;99.90
21039;DHT22;10678;51.002;4.786;2024-02-21T05:58:43;10.50;99.90
21039;DHT22;10678;51.002;4.786;2024-02-21T06:01:09;10.60;99.90
21039;DHT22;10678;51.002;4.786;2024-02-21T06:03:35;10.50;99.90
21039;DHT22;10678;51.002;4.786;2024-02-21T06:06:02;10.40;99.90
21039;DHT22;10678;51.002;4.786;2024-02-21T06:08:28;10.50;99.90
21039;DHT22;10678;51.002;4.786;2024-02-21T06:10:53;10.40;99.90
21039;DHT22;10678;51.002;4.786;2024-02-21T06:13:26;10.40;99.90
21039;DHT22;10678;51.002;4.786;2024-02-21T06:15:52;10.60;99.90
21039;DHT22;10678;51.002;4.786;2024-02-21T06:18:18;10.60;99.90
21039;DHT22;10678;51.002;4.786;2024-02-21T06:20:45;10.50;99.90
21039;DHT22;10678;51.002;4.786;2024-02-21T06:23:11;10.40;99.90
21039;DHT22;10678;51.002;4.786;2024-02-21T06:25:38;10.60;99.90
21039;DHT22;10678;51.002;4.786;2024-02-21T06:28:04;10.70;99.90
21039;DHT22;10678;51.002;4.786;2024-02-21T06:30:29;10.70;99.90
21039;DHT22;10678;51.002;4.786;2024-02-21T06:32:55;10.60;99.90
21039;DHT22;10678;51.002;4.786;2024-02-21T06:35:21;10.50;99.90
21039;DHT22;10678;51.002;4.786;2024-02-21T06:37:50;10.50;99.90
21039;DHT22;10678;51.002;4.786;2024-02-21T06:40:23;10.50;99.90
21039;DHT22;10678;51.002;4.786;2024-02-21T06:42:49;10.60;99.90
21039;DHT22;10678;51.002;4.786;2024-02-21T06:45:15;10.70;99.90
21039;DHT22;10678;51.002;4.786;2024-02-21T06:47:41;10.60;99.90
21039;DHT22;10678;51.002;4.786;2024-02-21T06:50:07;10.60;99.90
21039;DHT22;10678;51.002;4.786;2024-02-21T06:52:34;10.60;99.90
21039;DHT22;10678;51.002;4.786;2024-02-21T06:54:59;10.70;99.90
21039;DHT22;10678;51.002;4.786;2024-02-21T06:57:25;10.80;99.90
21039;DHT22;10678;51.002;4.786;2024-02-21T06:59:51;10.80;99.90
21039;DHT22;10678;51.002;4.786;2024-02-21T07:02:16;10.90;99.90
21039;DHT22;10678;51.002;4.786;2024-02-21T07:04:42;10.80;99.90
21039;DHT22;10678;51.002;4.786;2024-02-21T07:07:09;10.70;99.90
21039;DHT22;10678;51.002;4.786;2024-02-21T07:09:34;10.70;99.90
21039;DHT22;10678;51.002;4.786;2024-02-21T07:12:00;10.90;99.90
21039;DHT22;10678;51.002;4.786;2024-02-21T07:14:27;10.90;99.90
21039;DHT22;10678;51.002;4.786;2024-02-21T07:16:53;10.90;99.90
21039;DHT22;10678;51.002;4.786;2024-02-21T07:19:19;10.90;99.90
21039;DHT22;10678;51.002;4.786;2024-02-21T07:21:45;10.80;99.90
21039;DHT22;10678;51.002;4.786;2024-02-21T07:24:10;10.70;99.90
21039;DHT22;10678;51.002;4.786;2024-02-21T07:26:36;10.70;99.90
21039;DHT22;10678;51.002;4.786;2024-02-21T07:29:02;10.70;99.90
21039;DHT22;10678;51.002;4.786;2024-02-21T07:31:27;10.80;99.90
21039;DHT22;10678;51.002;4.786;2024-02-21T07:33:53;10.50;99.90
21039;DHT22;10678;51.002;4.786;2024-02-21T07:36:31;10.40;99.90
21039;DHT22;10678;51.002;4.786;2024-02-21T07:38:56;10.40;99.90
21039;DHT22;10678;51.002;4.786;2024-02-21T07:41:22;10.40;99.90
21039;DHT22;10678;51.002;4.786;2024-02-21T07:43:48;10.40;99.90
21039;DHT22;10678;51.002;4.786;2024-02-21T07:46:17;10.60;99.90
21039;DHT22;10678;51.002;4.786;2024-02-21T07:48:44;10.60;99.90
21039;DHT22;10678;51.002;4.786;2024-02-21T07:51:10;10.70;99.90
21039;DHT22;10678;51.002;4.786;2024-02-21T07:53:35;10.60;99.90
21039;DHT22;10678;51.002;4.786;2024-02-21T07:56:01;10.70;99.90
21039;DHT22;10678;51.002;4.786;2024-02-21T07:58:27;10.60;99.90
21039;DHT22;10678;51.002;4.786;2024-02-21T08:00:52;10.80;99.90
21039;DHT22;10678;51.002;4.786;2024-02-21T08:03:18;10.60;99.90
21039;DHT22;10678;51.002;4.786;2024-02-21T08:05:43;10.70;99.90
21039;DHT22;10678;51.002;4.786;2024-02-21T08:08:09;10.80;99.90
21039;DHT22;10678;51.002;4.786;2024-02-21T08:10:35;10.60;99.90
21039;DHT22;10678;51.002;4.786;2024-02-21T08:13:00;10.60;99.90
21039;DHT22;10678;51.002;4.786;2024-02-21T08:15:26;10.60;99.90
21039;DHT22;10678;51.002;4.786;2024-02-21T08:17:55;10.60;99.90
21039;DHT22;10678;51.002;4.786;2024-02-21T08:20:24;10.70;99.90
21039;DHT22;10678;51.002;4.786;2024-02-21T08:22:50;10.70;99.90
21039;DHT22;10678;51.002;4.786;2024-02-21T08:25:15;10.70;99.90
21039;DHT22;10678;51.002;4.786;2024-02-21T08:27:41;10.60;99.90
21039;DHT22;10678;51.002;4.786;2024-02-21T08:30:07;10.80;99.90
21039;DHT22;10678;51.002;4.786;2024-02-21T08:32:33;10.80;99.90
21039;DHT22;10678;51.002;4.786;2024-02-21T08:35:00;10.90;99.90
21039;DHT22;10678;51.002;4.786;2024-02-21T08:37:27;10.80;99.90
21039;DHT22;10678;51.002;4.786;2024-02-21T08:39:53;10.90;99.90
21039;DHT22;10678;51.002;4.786;2024-02-21T08:42:18;10.80;99.90
21039;DHT22;10678;51.002;4.786;2024-02-21T08:44:44;10.80;99.90
21039;DHT22;10678;51.002;4.786;2024-02-21T08:47:11;10.70;99.90
21039;DHT22;10678;51.002;4.786;2024-02-21T08:49:37;10.70;99.90
21039;DHT22;10678;51.002;4.786;2024-02-21T08:52:03;10.80;99.90
21039;DHT22;10678;51.002;4.786;2024-02-21T08:54:28;10.80;99.90
21039;DHT22;10678;51.002;4.786;2024-02-21T08:56:54;10.70;99.90
21039;DHT22;10678;51.002;4.786;2024-02-21T08:59:20;11.00;99.90
21039;DHT22;10678;51.002;4.786;2024-02-21T09:01:46;11.00;99.90
21039;DHT22;10678;51.002;4.786;2024-02-21T09:04:12;11.00;99.90
21039;DHT22;10678;51.002;4.786;2024-02-21T09:06:38;10.90;99.90
21039;DHT22;10678;51.002;4.786;2024-02-21T09:09:10;10.90;99.90
21039;DHT22;10678;51.002;4.786;2024-02-21T09:11:36;11.10;99.90
21039;DHT22;10678;51.002;4.786;2024-02-21T09:14:01;11.10;99.90
21039;DHT22;10678;51.002;4.786;2024-02-21T09:16:30;11.10;99.90
21039;DHT22;10678;51.002;4.786;2024-02-21T09:18:56;11.30;99.90
21039;DHT22;10678;51.002;4.786;2024-02-21T09:21:22;11.20;99.90
21039;DHT22;10678;51.002;4.786;2024-02-21T09:23:48;11.30;99.90
21039;DHT22;10678;51.002;4.786;2024-02-21T09:26:14;11.20;99.90
21039;DHT22;10678;51.002;4.786;2024-02-21T09:28:41;11.50;99.90
21039;DHT22;10678;51.002;4.786;2024-02-21T09:31:07;11.60;99.90
21039;DHT22;10678;51.002;4.786;2024-02-21T09:33:33;11.70;99.90
21039;DHT22;10678;51.002;4.786;2024-02-21T09:35:58;11.80;99.90
21039;DHT22;10678;51.002;4.786;2024-02-21T09:38:24;11.80;99.90
21039;DHT22;10678;51.002;4.786;2024-02-21T09:41:22;11.90;99.90
21039;DHT22;10678;51.002;4.786;2024-02-21T09:43:50;11.90;99.90
21039;DHT22;10678;51.002;4.786;2024-02-21T09:46:23;12.00;99.90
21039;DHT22;10678;51.002;4.786;2024-02-21T09:52:09;12.50;99.90
21039;DHT22;10678;51.002;4.786;2024-02-21T09:54:37;12.60;99.90
21039;DHT22;10678;51.002;4.786;2024-02-21T09:57:04;12.60;99.90
21039;DHT22;10678;51.002;4.786;2024-02-21T09:59:32;12.60;99.90
21039;DHT22;10678;51.002;4.786;2024-02-21T10:01:58;13.00;99.90
21039;DHT22;10678;51.002;4.786;2024-02-21T10:04:27;13.10;99.90
21039;DHT22;10678;51.002;4.786;2024-02-21T10:06:56;13.30;99.90
21039;DHT22;10678;51.002;4.786;2024-02-21T10:09:26;13.30;99.90
21039;DHT22;10678;51.002;4.786;2024-02-21T10:12:15;13.10;99.90
21039;DHT22;10678;51.002;4.786;2024-02-21T10:14:44;13.20;99.90
21039;DHT22;10678;51.002;4.786;2024-02-21T10:17:17;13.40;99.90
21039;DHT22;10678;51.002;4.786;2024-02-21T10:19:45;13.30;99.90
21039;DHT22;10678;51.002;4.786;2024-02-21T10:22:12;13.40;99.90
21039;DHT22;10678;51.002;4.786;2024-02-21T10:24:40;13.30;99.90
21039;DHT22;10678;51.002;4.786;2024-02-21T10:27:10;13.20;99.90
21039;DHT22;10678;51.002;4.786;2024-02-21T10:29:38;13.20;99.90
21039;DHT22;10678;51.002;4.786;2024-02-21T10:32:08;13.10;99.90
21039;DHT22;10678;51.002;4.786;2024-02-21T10:34:35;13.10;99.90
21039;DHT22;10678;51.002;4.786;2024-02-21T10:39:29;13.00;99.90
21039;DHT22;10678;51.002;4.786;2024-02-21T10:41:56;13.10;99.90
21039;DHT22;10678;51.002;4.786;2024-02-21T10:44:27;13.30;99.90
21039;DHT22;10678;51.002;4.786;2024-02-21T10:46:53;13.70;99.90
21039;DHT22;10678;51.002;4.786;2024-02-21T10:49:23;13.70;99.90
21039;DHT22;10678;51.002;4.786;2024-02-21T10:51:54;13.90;99.90
21039;DHT22;10678;51.002;4.786;2024-02-21T10:54:35;14.00;99.90
21039;DHT22;10678;51.002;4.786;2024-02-21T10:57:05;14.10;99.90
21039;DHT22;10678;51.002;4.786;2024-02-21T10:59:32;14.10;99.90
21039;DHT22;10678;51.002;4.786;2024-02-21T11:01:58;14.20;99.90
21039;DHT22;10678;51.002;4.786;2024-02-21T11:04:24;14.20;99.90
21039;DHT22;10678;51.002;4.786;2024-02-21T11:06:51;14.40;99.90
21039;DHT22;10678;51.002;4.786;2024-02-21T11:09:17;14.40;99.90
21039;DHT22;10678;51.002;4.786;2024-02-21T11:11:44;14.30;99.90
21039;DHT22;10678;51.002;4.786;2024-02-21T11:14:20;14.40;99.90
21039;DHT22;10678;51.002;4.786;2024-02-21T11:16:47;14.50;99.90
21039;DHT22;10678;51.002;4.786;2024-02-21T11:19:19;14.60;99.90
21039;DHT22;10678;51.002;4.786;2024-02-21T11:21:44;14.70;99.90
21039;DHT22;10678;51.002;4.786;2024-02-21T11:24:10;14.80;99.90
21039;DHT22;10678;51.002;4.786;2024-02-21T11:26:37;14.60;99.90
21039;DHT22;10678;51.002;4.786;2024-02-21T11:29:03;14.40;99.90
21039;DHT22;10678;51.002;4.786;2024-02-21T11:31:41;14.50;99.90
21039;DHT22;10678;51.002;4.786;2024-02-21T11:34:10;14.80;99.90
21039;DHT22;10678;51.002;4.786;2024-02-21T11:36:49;15.10;99.90
21039;DHT22;10678;51.002;4.786;2024-02-21T11:39:33;15.60;99.90
21039;DHT22;10678;51.002;4.786;2024-02-21T11:42:06;15.90;99.90
21039;DHT22;10678;51.002;4.786;2024-02-21T11:44:34;15.50;99.90
21039;DHT22;10678;51.002;4.786;2024-02-21T11:47:00;15.10;99.90
21039;DHT22;10678;51.002;4.786;2024-02-21T11:49:27;14.60;99.90
21039;DHT22;10678;51.002;4.786;2024-02-21T11:52:00;14.50;99.90
21039;DHT22;10678;51.002;4.786;2024-02-21T11:54:27;14.40;99.90
21039;DHT22;10678;51.002;4.786;2024-02-21T11:56:53;14.20;99.90
21039;DHT22;10678;51.002;4.786;2024-02-21T11:59:19;14.10;99.90
21039;DHT22;10678;51.002;4.786;2024-02-21T12:01:44;13.90;99.90
21039;DHT22;10678;51.002;4.786;2024-02-21T12:04:10;13.70;99.90
21039;DHT22;10678;51.002;4.786;2024-02-21T12:06:36;13.90;99.90
21039;DHT22;10678;51.002;4.786;2024-02-21T12:09:01;13.80;99.90
21039;DHT22;10678;51.002;4.786;2024-02-21T12:11:27;13.80;99.90
21039;DHT22;10678;51.002;4.786;2024-02-21T12:14:03;13.80;99.90
21039;DHT22;10678;51.002;4.786;2024-02-21T12:16:33;13.60;99.90
21039;DHT22;10678;51.002;4.786;2024-02-21T12:19:00;13.60;99.90
21039;DHT22;10678;51.002;4.786;2024-02-21T12:21:33;13.60;99.90
21039;DHT22;10678;51.002;4.786;2024-02-21T12:24:34;13.50;99.90
21039;DHT22;10678;51.002;4.786;2024-02-21T12:27:01;13.40;99.90
21039;DHT22;10678;51.002;4.786;2024-02-21T12:29:29;13.30;99.90
21039;DHT22;10678;51.002;4.786;2024-02-21T12:31:55;13.30;99.90
21039;DHT22;10678;51.002;4.786;2024-02-21T12:34:21;13.30;99.90
21039;DHT22;10678;51.002;4.786;2024-02-21T12:36:48;13.30;99.90
21039;DHT22;10678;51.002;4.786;2024-02-21T12:39:13;13.40;99.90
21039;DHT22;10678;51.002;4.786;2024-02-21T12:41:39;13.40;99.90
21039;DHT22;10678;51.002;4.786;2024-02-21T12:44:09;13.60;99.90
21039;DHT22;10678;51.002;4.786;2024-02-21T12:46:36;13.50;99.90
21039;DHT22;10678;51.002;4.786;2024-02-21T12:49:03;13.30;99.90
21039;DHT22;10678;51.002;4.786;2024-02-21T12:51:29;13.20;99.90
21039;DHT22;10678;51.002;4.786;2024-02-21T12:53:55;13.00;99.90
21039;DHT22;10678;51.002;4.786;2024-02-21T12:56:21;13.10;99.90
21039;DHT22;10678;51.002;4.786;2024-02-21T12:58:46;13.20;99.90
21039;DHT22;10678;51.002;4.786;2024-02-21T13:01:12;13.20;99.90
21039;DHT22;10678;51.002;4.786;2024-02-21T13:03:38;13.00;99.90
21039;DHT22;10678;51.002;4.786;2024-02-21T13:06:04;13.10;99.90
21039;DHT22;10678;51.002;4.786;2024-02-21T13:08:30;13.20;99.90
21039;DHT22;10678;51.002;4.786;2024-02-21T13:10:55;13.00;99.90
21039;DHT22;10678;51.002;4.786;2024-02-21T13:13:21;13.00;99.90
21039;DHT22;10678;51.002;4.786;2024-02-21T13:15:47;12.90;99.90
21039;DHT22;10678;51.002;4.786;2024-02-21T13:18:12;13.00;99.90
21039;DHT22;10678;51.002;4.786;2024-02-21T13:20:38;13.00;99.90
21039;DHT22;10678;51.002;4.786;2024-02-21T13:23:04;13.10;99.90
21039;DHT22;10678;51.002;4.786;2024-02-21T13:25:29;13.10;99.90
21039;DHT22;10678;51.002;4.786;2024-02-21T13:27:55;13.20;99.90
21039;DHT22;10678;51.002;4.786;2024-02-21T13:30:22;13.30;99.90
21039;DHT22;10678;51.002;4.786;2024-02-21T13:32:47;13.30;99.90
21039;DHT22;10678;51.002;4.786;2024-02-21T13:35:13;13.30;99.90
21039;DHT22;10678;51.002;4.786;2024-02-21T13:37:40;13.30;99.90
21039;DHT22;10678;51.002;4.786;2024-02-21T13:40:06;13.40;99.90
21039;DHT22;10678;51.002;4.786;2024-02-21T13:42:34;13.30;99.90
21039;DHT22;10678;51.002;4.786;2024-02-21T13:45:00;13.20;99.90
21039;DHT22;10678;51.002;4.786;2024-02-21T13:47:26;13.30;99.90
21039;DHT22;10678;51.002;4.786;2024-02-21T13:49:52;13.00;99.90
21039;DHT22;10678;51.002;4.786;2024-02-21T13:52:18;13.10;99.90
21039;DHT22;10678;51.002;4.786;2024-02-21T13:54:48;13.10;99.90
21039;DHT22;10678;51.002;4.786;2024-02-21T13:57:13;13.10;99.90
21039;DHT22;10678;51.002;4.786;2024-02-21T13:59:40;13.10;99.90
21039;DHT22;10678;51.002;4.786;2024-02-21T14:02:05;13.00;99.90
21039;DHT22;10678;51.002;4.786;2024-02-21T14:04:34;13.00;99.90
21039;DHT22;10678;51.002;4.786;2024-02-21T14:07:00;13.00;99.90
21039;DHT22;10678;51.002;4.786;2024-02-21T14:09:26;12.90;99.90
21039;DHT22;10678;51.002;4.786;2024-02-21T14:11:52;12.90;99.90
21039;DHT22;10678;51.002;4.786;2024-02-21T14:14:18;12.80;99.90
21039;DHT22;10678;51.002;4.786;2024-02-21T14:16:44;12.80;99.90
21039;DHT22;10678;51.002;4.786;2024-02-21T14:19:10;12.80;99.90
21039;DHT22;10678;51.002;4.786;2024-02-21T14:21:37;12.90;99.90
21039;DHT22;10678;51.002;4.786;2024-02-21T14:24:06;12.70;99.90
21039;DHT22;10678;51.002;4.786;2024-02-21T14:26:32;12.70;99.90
21039;DHT22;10678;51.002;4.786;2024-02-21T14:28:58;12.60;99.90
21039;DHT22;10678;51.002;4.786;2024-02-21T14:31:23;12.40;99.90
21039;DHT22;10678;51.002;4.786;2024-02-21T14:33:49;12.40;99.90
21039;DHT22;10678;51.002;4.786;2024-02-21T14:36:14;12.50;99.90
21039;DHT22;10678;51.002;4.786;2024-02-21T14:38:43;12.40;99.90
21039;DHT22;10678;51.002;4.786;2024-02-21T14:41:10;12.40;99.90
21039;DHT22;10678;51.002;4.786;2024-02-21T14:43:38;12.40;99.90
21039;DHT22;10678;51.002;4.786;2024-02-21T14:46:04;12.20;99.90
21039;DHT22;10678;51.002;4.786;2024-02-21T14:48:34;12.20;99.90
21039;DHT22;10678;51.002;4.786;2024-02-21T14:51:00;12.20;99.90
21039;DHT22;10678;51.002;4.786;2024-02-21T14:53:26;12.00;99.90
21039;DHT22;10678;51.002;4.786;2024-02-21T14:55:52;12.00;99.90
21039;DHT22;10678;51.002;4.786;2024-02-21T14:58:18;12.00;99.90
21039;DHT22;10678;51.002;4.786;2024-02-21T15:00:45;11.90;99.90
21039;DHT22;10678;51.002;4.786;2024-02-21T15:03:12;11.90;99.90
21039;DHT22;10678;51.002;4.786;2024-02-21T15:05:41;11.90;99.90
21039;DHT22;10678;51.002;4.786;2024-02-21T15:08:06;11.80;99.90
21039;DHT22;10678;51.002;4.786;2024-02-21T15:10:34;11.70;99.90
21039;DHT22;10678;51.002;4.786;2024-02-21T15:13:00;11.30;99.90
21039;DHT22;10678;51.002;4.786;2024-02-21T15:15:26;11.30;99.90
21039;DHT22;10678;51.002;4.786;2024-02-21T15:17:51;11.30;99.90
21039;DHT22;10678;51.002;4.786;2024-02-21T15:20:17;11.30;99.90
21039;DHT22;10678;51.002;4.786;2024-02-21T15:22:43;11.20;99.90
21039;DHT22;10678;51.002;4.786;2024-02-21T15:25:09;11.20;99.90
21039;DHT22;10678;51.002;4.786;2024-02-21T15:27:43;11.30;99.90
21039;DHT22;10678;51.002;4.786;2024-02-21T15:30:10;11.10;99.90
21039;DHT22;10678;51.002;4.786;2024-02-21T15:32:37;11.00;99.90